createdAt,value
2023-05-06T00:00:23.634Z,4.10
2023-05-06T00:02:52.768Z,3.83
2023-05-06T00:05:24.036Z,3.43
2023-05-06T00:07:52.612Z,4.27
2023-05-06T00:10:21.418Z,3.13
2023-05-06T00:12:52.624Z,3.90
2023-05-06T00:15:25.633Z,4.53
2023-05-06T00:17:56.627Z,3.27
2023-05-06T00:20:26.069Z,3.97
2023-05-06T00:22:54.568Z,4.20
2023-05-06T00:25:23.156Z,3.87
2023-05-06T00:27:51.635Z,3.10
2023-05-06T00:30:22.209Z,3.20
2023-05-06T00:32:50.759Z,3.53
2023-05-06T00:35:19.517Z,3.80
2023-05-06T00:37:48.351Z,3.40
2023-05-06T00:40:16.935Z,3.57
2023-05-06T00:42:45.531Z,2.10
2023-05-06T00:45:15.293Z,2.53
2023-05-06T00:47:45.958Z,2.07
2023-05-06T00:50:16.293Z,3.13
2023-05-06T00:52:45.405Z,3.17
2023-05-06T00:55:14.243Z,3.13
2023-05-06T00:58:05.332Z,2.73
2023-05-06T01:00:52.494Z,3.00
2023-05-06T01:03:22.713Z,4.00
2023-05-06T01:05:59.594Z,3.87
2023-05-06T01:08:36.131Z,2.50
2023-05-06T01:11:10.951Z,2.73
2023-05-06T01:13:47.613Z,3.20
2023-05-06T01:16:19.125Z,3.50
2023-05-06T01:18:50.780Z,2.20
2023-05-06T01:21:22.165Z,3.53
2023-05-06T01:23:59.308Z,3.10
2023-05-06T01:26:28.478Z,3.07
2023-05-06T01:28:59.791Z,2.70
2023-05-06T01:31:35.516Z,3.20
2023-05-06T01:34:11.124Z,2.67
2023-05-06T01:36:47.053Z,2.53
2023-05-06T01:39:19.920Z,2.40
2023-05-06T01:41:51.264Z,3.27
2023-05-06T01:44:24.208Z,2.90
2023-05-06T01:46:54.616Z,2.30
2023-05-06T01:49:24.583Z,2.40
2023-05-06T01:51:55.092Z,2.70
2023-05-06T01:54:26.480Z,2.30
2023-05-06T01:56:55.088Z,2.53
2023-05-06T01:59:23.729Z,2.47
2023-05-06T02:01:53.630Z,2.20
2023-05-06T02:04:22.279Z,2.87
2023-05-06T02:06:51.043Z,2.50
2023-05-06T02:09:20.774Z,2.67
2023-05-06T02:11:56.936Z,2.63
2023-05-06T02:14:26.823Z,2.33
2023-05-06T02:16:56.417Z,2.27
2023-05-06T02:19:25.001Z,2.57
2023-05-06T02:21:56.595Z,2.03
2023-05-06T02:24:26.806Z,2.20
2023-05-06T02:26:56.657Z,2.30
2023-05-06T02:29:25.188Z,2.03
2023-05-06T02:31:53.783Z,1.87
2023-05-06T02:34:22.356Z,2.10
2023-05-06T02:36:50.965Z,2.17
2023-05-06T02:39:19.477Z,2.90
2023-05-06T02:41:48.061Z,2.10
2023-05-06T02:44:17.995Z,2.60
2023-05-06T02:46:46.537Z,2.23
2023-05-06T02:49:15.047Z,2.27
2023-05-06T02:51:43.531Z,2.13
2023-05-06T02:54:12.089Z,2.70
2023-05-06T02:56:42.575Z,2.00
2023-05-06T02:59:11.175Z,2.13
2023-05-06T03:01:41.221Z,2.20
2023-05-06T03:04:09.884Z,2.40
2023-05-06T03:06:38.462Z,2.10
2023-05-06T03:09:07.094Z,2.30
2023-05-06T03:11:35.749Z,1.90
2023-05-06T03:14:06.696Z,1.80
2023-05-06T03:16:35.718Z,2.00
2023-05-06T03:19:06.638Z,2.40
2023-05-06T03:21:36.030Z,2.10
2023-05-06T03:24:05.360Z,2.07
2023-05-06T03:26:34.004Z,1.73
2023-05-06T03:29:03.041Z,2.30
2023-05-06T03:31:32.403Z,2.03
2023-05-06T03:34:03.007Z,2.13
2023-05-06T03:36:33.241Z,1.97
2023-05-06T03:39:02.328Z,1.90
2023-05-06T03:41:33.633Z,1.50
2023-05-06T03:44:02.220Z,2.20
2023-05-06T03:46:30.791Z,2.40
2023-05-06T03:49:00.688Z,1.80
2023-05-06T03:51:29.905Z,1.97
2023-05-06T03:53:59.890Z,2.00
2023-05-06T03:56:28.470Z,1.67
2023-05-06T03:58:58.474Z,2.20
2023-05-06T04:01:28.453Z,2.20
2023-05-06T04:03:57.061Z,1.80
2023-05-06T04:06:27.285Z,2.20
2023-05-06T04:08:56.900Z,2.20
2023-05-06T04:11:28.571Z,1.63
2023-05-06T04:13:59.754Z,1.50
2023-05-06T04:16:28.462Z,1.93
2023-05-06T04:18:57.659Z,1.43
2023-05-06T04:21:26.836Z,2.53
2023-05-06T04:24:02.621Z,1.90
2023-05-06T04:26:39.542Z,2.07
2023-05-06T04:29:09.044Z,1.70
2023-05-06T04:31:44.361Z,1.50
2023-05-06T04:34:15.301Z,1.63
2023-05-06T04:36:44.317Z,1.40
2023-05-06T04:39:28.386Z,1.70
2023-05-06T04:41:59.966Z,1.93
2023-05-06T04:44:36.581Z,1.50
2023-05-06T04:47:08.410Z,1.67
2023-05-06T04:49:37.370Z,1.43
2023-05-06T04:52:07.672Z,1.93
2023-05-06T04:54:36.713Z,1.63
2023-05-06T04:57:08.041Z,1.77
2023-05-06T04:59:38.486Z,1.63
2023-05-06T05:02:07.022Z,1.70
2023-05-06T05:04:35.724Z,1.70
2023-05-06T05:07:04.448Z,1.53
2023-05-06T05:09:33.934Z,1.90
2023-05-06T05:12:03.524Z,1.47
2023-05-06T05:14:37.230Z,1.50
2023-05-06T05:17:06.220Z,2.00
2023-05-06T05:19:34.853Z,2.03
2023-05-06T05:22:03.746Z,1.50
2023-05-06T05:24:34.552Z,1.47
2023-05-06T05:27:03.573Z,1.60
2023-05-06T05:29:32.205Z,1.50
2023-05-06T05:32:03.838Z,1.77
2023-05-06T05:34:33.004Z,1.60
2023-05-06T05:37:02.872Z,1.80
2023-05-06T05:39:32.543Z,1.60
2023-05-06T05:42:02.405Z,1.77
2023-05-06T05:44:31.863Z,1.50
2023-05-06T05:47:03.047Z,1.60
2023-05-06T05:49:32.259Z,1.60
2023-05-06T05:52:00.826Z,1.53
2023-05-06T05:54:32.694Z,1.50
2023-05-06T05:57:01.850Z,1.50
2023-05-06T05:59:31.761Z,1.47
2023-05-06T06:02:05.775Z,1.60
2023-05-06T06:04:34.778Z,1.50
2023-05-06T06:07:03.371Z,1.40
2023-05-06T06:09:36.619Z,1.83
2023-05-06T06:12:06.782Z,1.60
2023-05-06T06:14:37.683Z,1.57
2023-05-06T06:17:07.926Z,1.50
2023-05-06T06:19:36.789Z,2.00
2023-05-06T06:22:05.397Z,1.60
2023-05-06T06:24:36.320Z,1.43
2023-05-06T06:27:05.160Z,1.50
2023-05-06T06:29:34.487Z,1.50
2023-05-06T06:32:04.817Z,1.30
2023-05-06T06:34:34.932Z,1.40
2023-05-06T06:37:04.953Z,1.20
2023-05-06T06:39:34.418Z,1.40
2023-05-06T06:42:04.351Z,1.20
2023-05-06T06:44:40.199Z,1.53
2023-05-06T06:47:08.606Z,1.20
2023-05-06T06:49:39.513Z,1.33
2023-05-06T06:52:08.033Z,1.27
2023-05-06T06:54:38.906Z,1.37
2023-05-06T06:57:07.986Z,1.43
2023-05-06T06:59:36.522Z,1.03
2023-05-06T07:02:05.370Z,1.30
2023-05-06T07:04:33.822Z,1.30
2023-05-06T07:07:03.725Z,1.57
2023-05-06T07:09:33.789Z,1.40
2023-05-06T07:12:03.755Z,1.00
2023-05-06T07:14:32.591Z,1.60
2023-05-06T07:17:02.088Z,1.20
2023-05-06T07:19:31.640Z,1.17
2023-05-06T07:22:00.395Z,1.13
2023-05-06T07:24:30.410Z,2.13
2023-05-06T07:26:59.498Z,1.37
2023-05-06T07:29:28.234Z,2.07
2023-05-06T07:37:08.068Z,1.13
2023-05-06T07:39:38.102Z,1.30
2023-05-06T07:42:07.620Z,1.00
2023-05-06T07:44:37.370Z,1.00
2023-05-06T07:47:05.984Z,1.27
2023-05-06T07:49:37.365Z,1.40
2023-05-06T07:52:06.253Z,1.20
2023-05-06T07:54:34.671Z,1.47
2023-05-06T07:57:04.869Z,1.53
2023-05-06T07:59:33.284Z,1.23
2023-05-06T08:02:01.662Z,1.33
2023-05-06T08:04:30.204Z,1.20
2023-05-06T08:06:58.623Z,1.70
2023-05-06T08:09:27.341Z,1.33
2023-05-06T08:11:56.326Z,1.00
2023-05-06T08:14:26.927Z,1.27
2023-05-06T08:16:55.648Z,1.40
2023-05-06T08:19:24.347Z,1.43
2023-05-06T08:21:52.971Z,1.10
2023-05-06T08:24:21.712Z,1.57
2023-05-06T08:26:50.076Z,0.90
2023-05-06T08:29:18.413Z,1.30
2023-05-06T08:31:48.794Z,1.17
2023-05-06T08:34:18.615Z,1.20
2023-05-06T08:36:46.946Z,1.30
2023-05-06T08:39:15.640Z,1.10
2023-05-06T08:41:49.438Z,1.10
2023-05-06T08:44:20.137Z,0.90
2023-05-06T08:46:49.914Z,1.50
2023-05-06T08:49:18.581Z,1.40
2023-05-06T08:51:52.113Z,1.20
2023-05-06T08:54:20.547Z,0.97
2023-05-06T08:56:53.859Z,1.03
2023-05-06T08:59:26.731Z,1.10
2023-05-06T09:01:56.517Z,1.07
2023-05-06T09:04:25.246Z,1.20
2023-05-06T09:06:58.907Z,1.00
2023-05-06T09:09:27.367Z,0.90
2023-05-06T09:11:57.772Z,0.80
2023-05-06T09:14:26.223Z,1.30
2023-05-06T09:16:56.120Z,1.00
2023-05-06T09:19:25.715Z,1.13
2023-05-06T09:21:54.115Z,1.20
2023-05-06T09:24:22.483Z,1.03
2023-05-06T09:26:55.156Z,1.17
2023-05-06T09:29:23.689Z,1.07
2023-05-06T09:31:54.824Z,1.07
2023-05-06T09:34:24.757Z,0.90
2023-05-06T09:36:57.242Z,1.10
2023-05-06T09:39:27.652Z,1.10
2023-05-06T09:41:59.311Z,0.97
2023-05-06T09:44:28.366Z,0.80
2023-05-06T09:46:57.013Z,1.07
2023-05-06T09:49:27.529Z,0.90
2023-05-06T09:51:57.809Z,0.80
2023-05-06T09:54:26.460Z,0.83
2023-05-06T09:56:58.834Z,0.97
2023-05-06T09:59:30.686Z,1.10
2023-05-06T10:02:00.611Z,1.00
2023-05-06T10:04:32.326Z,1.27
2023-05-06T10:07:02.880Z,1.20
2023-05-06T10:09:32.254Z,0.90
2023-05-06T10:12:02.291Z,1.40
2023-05-06T10:14:30.831Z,0.90
2023-05-06T10:16:59.933Z,1.07
2023-05-06T10:19:30.014Z,0.97
2023-05-06T10:22:05.670Z,1.17
2023-05-06T10:26:35.396Z,1.10
2023-05-06T10:29:04.796Z,1.40
2023-05-06T10:31:35.428Z,0.80
2023-05-06T10:34:09.095Z,1.30
2023-05-06T10:36:40.877Z,1.30
2023-05-06T10:39:13.680Z,1.00
2023-05-06T10:41:42.675Z,1.60
2023-05-06T10:44:12.073Z,1.10
2023-05-06T10:46:58.949Z,0.97
2023-05-06T10:49:27.980Z,0.97
2023-05-06T10:52:14.925Z,1.07
2023-05-06T10:54:51.301Z,1.10
2023-05-06T10:57:20.917Z,1.13
2023-05-06T10:59:50.447Z,0.83
2023-05-06T11:02:21.497Z,1.30
2023-05-06T11:05:00.908Z,1.40
2023-05-06T11:07:34.236Z,1.03
2023-05-06T11:10:06.089Z,0.97
2023-05-06T11:12:50.167Z,1.17
2023-05-06T11:15:26.267Z,1.37
2023-05-06T11:17:56.763Z,0.90
2023-05-06T11:20:27.369Z,1.20
2023-05-06T11:22:57.388Z,0.87
2023-05-06T11:25:42.334Z,0.90
2023-05-06T11:28:12.638Z,0.90
2023-05-06T11:30:43.097Z,0.80
2023-05-06T11:33:20.189Z,0.93
2023-05-06T11:35:49.859Z,1.13
2023-05-06T11:38:20.062Z,1.00
2023-05-06T11:40:50.263Z,0.80
2023-05-06T11:43:19.068Z,0.97
2023-05-06T11:45:50.642Z,0.90
2023-05-06T11:48:19.772Z,1.37
2023-05-06T11:50:49.329Z,1.07
2023-05-06T11:53:21.238Z,1.57
2023-05-06T11:55:50.295Z,1.37
2023-05-06T11:58:21.629Z,1.50
2023-05-06T12:00:52.049Z,1.00
2023-05-06T12:03:21.205Z,1.23
2023-05-06T12:05:50.229Z,1.20
2023-05-06T12:08:27.310Z,1.10
2023-05-06T12:11:00.197Z,1.17
2023-05-06T12:13:29.736Z,1.00
2023-05-06T12:16:00.165Z,1.03
2023-05-06T12:18:35.891Z,1.10
2023-05-06T12:21:04.702Z,1.30
2023-05-06T12:23:34.858Z,0.97
2023-05-06T12:26:04.599Z,0.93
2023-05-06T12:28:34.217Z,1.13
2023-05-06T12:31:02.887Z,1.80
2023-05-06T12:33:46.184Z,1.00
2023-05-06T12:36:14.616Z,1.00
2023-05-06T12:38:53.585Z,1.10
2023-05-06T12:41:22.994Z,1.10
2023-05-06T12:43:54.177Z,0.83
2023-05-06T12:46:23.308Z,0.90
2023-05-06T12:49:02.150Z,1.00
2023-05-06T12:51:32.440Z,1.20
2023-05-06T12:54:02.153Z,0.93
2023-05-06T12:56:30.560Z,1.17
2023-05-06T12:59:05.078Z,0.90
2023-05-06T13:01:33.539Z,1.07
2023-05-06T13:04:02.030Z,0.70
2023-05-06T13:06:31.713Z,1.00
2023-05-06T13:09:02.604Z,1.63
2023-05-06T13:11:31.215Z,1.40
2023-05-06T13:13:59.560Z,1.00
2023-05-06T13:16:32.363Z,1.40
2023-05-06T13:19:00.932Z,1.07
2023-05-06T13:21:29.472Z,1.10
2023-05-06T13:23:57.901Z,1.27
2023-05-06T13:26:28.020Z,1.40
2023-05-06T13:28:56.726Z,1.30
2023-05-06T13:31:26.111Z,1.10
2023-05-06T13:33:55.160Z,1.47
2023-05-06T13:36:24.599Z,1.50
2023-05-06T13:38:53.108Z,1.10
2023-05-06T13:41:21.625Z,1.07
2023-05-06T13:43:51.512Z,1.50
2023-05-06T13:46:20.054Z,1.20
2023-05-06T13:48:48.907Z,1.40
2023-05-06T13:51:17.436Z,1.20
2023-05-06T13:53:46.033Z,1.53
2023-05-06T13:56:14.573Z,1.30
2023-05-06T13:58:43.036Z,1.07
2023-05-06T14:01:12.749Z,1.03
2023-05-06T14:03:41.168Z,1.30
2023-05-06T14:06:12.865Z,1.40
2023-05-06T14:08:41.656Z,1.50
2023-05-06T14:11:11.518Z,1.60
2023-05-06T14:13:41.127Z,1.43
2023-05-06T14:16:09.663Z,1.37
2023-05-06T14:22:00.992Z,1.30
2023-05-06T14:24:29.363Z,1.20
2023-05-06T14:26:57.824Z,0.90
2023-05-06T14:29:26.302Z,1.30
2023-05-06T14:31:54.773Z,1.10
2023-05-06T14:34:23.554Z,1.20
2023-05-06T14:36:51.946Z,1.00
2023-05-06T14:39:21.661Z,1.23
2023-05-06T14:41:50.205Z,1.30
2023-05-06T14:44:18.540Z,1.40
2023-05-06T14:46:47.005Z,1.60
2023-05-06T14:49:16.538Z,1.30
2023-05-06T14:51:45.969Z,0.90
2023-05-06T14:54:14.348Z,1.00
2023-05-06T14:56:45.661Z,1.10
2023-05-06T14:59:14.060Z,1.30
2023-05-06T15:01:42.589Z,1.30
2023-05-06T15:04:11.374Z,1.10
2023-05-06T15:06:40.053Z,1.03
2023-05-06T15:09:08.867Z,0.90
2023-05-06T15:11:37.175Z,1.03
2023-05-06T15:14:06.922Z,1.03
2023-05-06T15:16:35.384Z,1.70
2023-05-06T15:19:04.295Z,1.53
2023-05-06T15:21:32.559Z,1.27
2023-05-06T15:24:01.912Z,1.20
2023-05-06T15:26:30.293Z,1.23
2023-05-06T15:28:58.629Z,1.07
2023-05-06T15:31:28.595Z,1.50
2023-05-06T15:33:58.836Z,1.10
2023-05-06T15:36:28.813Z,1.30
2023-05-06T15:39:00.494Z,0.90
2023-05-06T15:41:30.684Z,1.27
2023-05-06T15:44:00.419Z,1.10
2023-05-06T15:46:31.020Z,1.20
2023-05-06T15:49:21.050Z,1.20
2023-05-06T15:51:47.878Z,1.57
2023-05-06T15:54:18.975Z,1.10
2023-05-06T15:56:47.583Z,0.93
2023-05-06T15:59:16.293Z,1.10
2023-05-06T16:04:17.511Z,1.10
2023-05-06T16:06:49.112Z,1.00
2023-05-06T16:09:17.529Z,0.93
2023-05-06T16:11:46.047Z,1.40
2023-05-06T16:14:14.826Z,1.10
2023-05-06T16:16:43.675Z,1.03
2023-05-06T16:19:13.972Z,1.77
2023-05-06T16:21:42.547Z,0.90
2023-05-06T16:24:11.045Z,1.13
2023-05-06T16:26:39.571Z,0.90
2023-05-06T16:29:08.211Z,1.07
2023-05-06T16:31:37.041Z,0.90
2023-05-06T16:34:06.197Z,0.80
2023-05-06T16:36:36.280Z,0.90
2023-05-06T16:39:06.326Z,1.13
2023-05-06T16:41:35.011Z,1.20
2023-05-06T16:44:03.460Z,1.20
2023-05-06T16:46:33.294Z,1.30
2023-05-06T16:49:03.819Z,1.40
2023-05-06T16:51:33.254Z,1.00
2023-05-06T16:54:03.407Z,1.30
2023-05-06T16:56:43.598Z,1.00
2023-05-06T16:59:17.457Z,1.23
2023-05-06T17:01:46.945Z,1.10
2023-05-06T17:04:16.133Z,1.30
2023-05-06T17:06:44.721Z,1.30
2023-05-06T17:09:14.633Z,1.67
2023-05-06T17:11:43.081Z,1.53
2023-05-06T17:14:11.814Z,0.90
2023-05-06T17:16:40.561Z,1.40
2023-05-06T17:19:09.053Z,1.10
2023-05-06T17:21:37.686Z,1.17
2023-05-06T17:24:06.516Z,0.80
2023-05-06T17:26:37.334Z,0.90
2023-05-06T17:29:05.674Z,1.77
2023-05-06T17:31:34.211Z,1.57
2023-05-06T17:34:03.895Z,1.50
2023-05-06T17:36:32.750Z,1.50
2023-05-06T17:39:04.738Z,1.60
2023-05-06T17:41:33.730Z,1.70
2023-05-06T17:44:03.546Z,1.87
2023-05-06T17:46:33.521Z,1.43
2023-05-06T17:49:01.963Z,2.00
2023-05-06T17:51:30.353Z,1.40
2023-05-06T17:53:59.151Z,1.60
2023-05-06T17:56:28.009Z,1.43
2023-05-06T17:59:02.375Z,1.40
2023-05-06T18:01:32.364Z,1.20
2023-05-06T18:04:01.051Z,1.33
2023-05-06T18:06:29.608Z,1.63
2023-05-06T18:08:57.910Z,1.47
2023-05-06T18:11:26.308Z,1.50
2023-05-06T18:13:54.757Z,1.60
2023-05-06T18:16:23.121Z,1.43
2023-05-06T18:18:52.819Z,1.50
2023-05-06T18:21:21.278Z,1.97
2023-05-06T18:23:51.506Z,1.67
2023-05-06T18:26:42.728Z,1.50
2023-05-06T18:29:12.625Z,1.90
2023-05-06T18:31:40.940Z,1.33
2023-05-06T18:34:10.742Z,1.30
2023-05-06T18:36:39.058Z,1.20
2023-05-06T18:39:07.441Z,1.60
2023-05-06T18:41:35.909Z,1.60
2023-05-06T18:44:05.242Z,1.60
2023-05-06T18:46:33.761Z,1.97
2023-05-06T18:49:02.133Z,2.10
2023-05-06T18:51:32.119Z,1.43
2023-05-06T18:54:00.471Z,1.40
2023-05-06T18:56:28.878Z,1.27
2023-05-06T18:58:57.271Z,1.40
2023-05-06T19:01:26.236Z,1.07
2023-05-06T19:03:54.981Z,1.50
2023-05-06T19:06:23.480Z,1.40
2023-05-06T19:08:53.706Z,1.13
2023-05-06T19:11:22.390Z,1.37
2023-05-06T19:13:52.045Z,1.50
2023-05-06T19:16:23.715Z,1.10
2023-05-06T19:18:52.169Z,1.20
2023-05-06T19:21:23.112Z,0.90
2023-05-06T19:23:54.538Z,1.60
2023-05-06T19:26:22.945Z,1.37
2023-05-06T19:28:51.426Z,1.03
2023-05-06T19:31:19.942Z,1.10
2023-05-06T19:33:48.774Z,1.30
2023-05-06T19:36:17.812Z,1.13
2023-05-06T19:38:46.243Z,1.40
2023-05-06T19:41:16.095Z,1.30
2023-05-06T19:43:45.300Z,1.07
2023-05-06T19:46:14.544Z,1.33
2023-05-06T19:48:43.052Z,1.37
2023-05-06T19:51:11.511Z,0.93
2023-05-06T19:53:40.026Z,1.00
2023-05-06T19:56:12.478Z,1.67
2023-05-06T19:58:42.443Z,1.40
2023-05-06T20:01:11.101Z,1.53
2023-05-06T20:03:40.811Z,1.33
2023-05-06T20:06:09.435Z,1.43
2023-05-06T20:08:38.190Z,1.30
2023-05-06T20:11:06.855Z,1.37
2023-05-06T20:13:35.429Z,1.33
2023-05-06T20:16:05.859Z,1.33
2023-05-06T20:18:34.454Z,1.20
2023-05-06T20:21:03.053Z,1.37
2023-05-06T20:23:31.957Z,1.30
2023-05-06T20:26:00.355Z,1.40
2023-05-06T20:28:28.803Z,1.50
2023-05-06T20:30:59.792Z,1.40
2023-05-06T20:33:29.901Z,1.60
2023-05-06T20:35:58.313Z,1.40
2023-05-06T20:38:27.303Z,1.40
2023-05-06T20:40:55.759Z,1.23
2023-05-06T20:43:24.292Z,1.20
2023-05-06T20:45:52.889Z,1.43
2023-05-06T20:48:21.399Z,1.10
2023-05-06T20:50:54.070Z,1.60
2023-05-06T20:53:22.852Z,1.27
2023-05-06T20:55:51.584Z,1.20
2023-05-06T20:58:20.156Z,1.40
2023-05-06T21:00:50.003Z,1.47
2023-05-06T21:03:18.711Z,1.60
2023-05-06T21:05:47.144Z,1.43
2023-05-06T21:08:19.096Z,1.27
2023-05-06T21:10:47.603Z,1.27
2023-05-06T21:13:16.147Z,1.40
2023-05-06T21:15:44.625Z,1.23
2023-05-06T21:18:13.191Z,1.13
2023-05-06T21:20:41.773Z,1.20
2023-05-06T21:23:10.341Z,1.20
2023-05-06T21:25:40.114Z,1.10
2023-05-06T21:28:08.601Z,1.70
2023-05-06T21:30:37.763Z,1.23
2023-05-06T21:33:08.283Z,1.53
2023-05-06T21:35:36.788Z,1.20
2023-05-06T21:38:05.408Z,1.20
2023-05-06T21:40:36.952Z,1.53
2023-05-06T21:43:06.890Z,1.40
2023-05-06T21:45:35.317Z,1.27
2023-05-06T21:48:03.739Z,1.23
2023-05-06T21:50:32.258Z,1.40
2023-05-06T21:53:00.736Z,1.30
2023-05-06T21:55:29.206Z,1.53
2023-05-06T21:57:57.659Z,1.40
2023-05-06T22:00:28.313Z,1.53
2023-05-06T22:03:21.607Z,1.30
2023-05-06T22:05:50.279Z,1.10
2023-05-06T22:08:18.786Z,1.27
2023-05-06T22:10:47.421Z,1.30
2023-05-06T22:13:15.882Z,1.10
2023-05-06T22:15:45.901Z,1.20
2023-05-06T22:18:14.513Z,1.10
2023-05-06T22:20:42.956Z,1.07
2023-05-06T22:23:12.475Z,1.20
2023-05-06T22:25:40.955Z,1.33
2023-05-06T22:28:09.422Z,1.20
2023-05-06T22:30:38.014Z,1.27
2023-05-06T22:33:07.924Z,1.30
2023-05-06T22:35:36.661Z,1.20
2023-05-06T22:38:05.103Z,1.27
2023-05-06T22:40:33.548Z,1.20
2023-05-06T22:43:02.040Z,1.57
2023-05-06T22:45:30.526Z,1.40
2023-05-06T22:47:59.039Z,1.10
2023-05-06T22:50:29.368Z,1.47
2023-05-06T22:52:57.825Z,1.27
2023-05-06T22:55:26.329Z,1.20
2023-05-06T22:57:54.890Z,1.33
2023-05-06T23:00:24.153Z,1.33
2023-05-06T23:02:52.703Z,1.27
2023-05-06T23:05:21.386Z,1.30
2023-05-06T23:07:51.289Z,1.10
2023-05-06T23:10:20.655Z,1.30
2023-05-06T23:12:49.162Z,1.40
2023-05-06T23:15:17.674Z,1.40
2023-05-06T23:17:46.200Z,1.60
2023-05-06T23:20:16.797Z,1.30
2023-05-06T23:22:45.426Z,1.43
2023-05-06T23:25:16.087Z,1.10
2023-05-06T23:27:44.953Z,1.63
2023-05-06T23:30:14.425Z,1.40
2023-05-06T23:32:43.004Z,1.40
2023-05-06T23:35:11.797Z,1.33
2023-05-06T23:37:40.570Z,1.77
2023-05-06T23:40:12.539Z,1.60
2023-05-06T23:42:42.624Z,1.87
2023-05-06T23:45:12.038Z,1.20
2023-05-06T23:47:41.088Z,1.13
2023-05-06T23:50:10.327Z,1.50
2023-05-06T23:52:39.276Z,1.50
2023-05-06T23:55:08.950Z,1.60
2023-05-06T23:57:37.942Z,1.60
